sensor_id;sensor_type;location;lat;lon;timestamp;pressure;altitude;pressure_sealevel;temperature;humidity
46476;BME280;53376;51.114;14.738;2022-09-09T00:01:37;98063.75;;;20.53;53.38
46476;BME280;53376;51.114;14.738;2022-09-09T00:18:35;98067.94;;;20.39;53.54
46476;BME280;53376;51.114;14.738;2022-09-09T00:21:18;98060.00;;;20.37;53.34
46476;BME280;53376;51.114;14.738;2022-09-09T00:24:08;98059.16;;;20.37;53.27
46476;BME280;53376;51.114;14.738;2022-09-09T00:26:48;98059.31;;;20.35;53.39
46476;BME280;53376;51.114;14.738;2022-09-09T00:29:40;98058.31;;;20.36;53.30
46476;BME280;53376;51.114;14.738;2022-09-09T00:32:19;98060.00;;;20.37;53.41
46476;BME280;53376;51.114;14.738;2022-09-09T00:42:32;98055.56;;;20.28;52.97
46476;BME280;53376;51.114;14.738;2022-09-09T00:45:36;98057.63;;;20.26;53.31
46476;BME280;53376;51.114;14.738;2022-09-09T00:48:37;98053.41;;;20.23;53.41
46476;BME280;53376;51.114;14.738;2022-09-09T00:51:29;98058.09;;;20.21;53.12
46476;BME280;53376;51.114;14.738;2022-09-09T00:54:31;98054.88;;;20.18;53.34
46476;BME280;53376;51.114;14.738;2022-09-09T00:57:27;98057.88;;;20.14;53.25
46476;BME280;53376;51.114;14.738;2022-09-09T01:10:48;98066.97;;;20.05;53.66
46476;BME280;53376;51.114;14.738;2022-09-09T01:13:34;98071.53;;;20.05;53.74
46476;BME280;53376;51.114;14.738;2022-09-09T01:16:11;98064.44;;;20.04;53.77
46476;BME280;53376;51.114;14.738;2022-09-09T01:18:54;98072.53;;;20.04;53.39
46476;BME280;53376;51.114;14.738;2022-09-09T01:21:34;98074.38;;;20.03;53.93
46476;BME280;53376;51.114;14.738;2022-09-09T01:38:21;98087.13;;;19.93;53.63
46476;BME280;53376;51.114;14.738;2022-09-09T01:41:02;98082.75;;;19.92;53.47
46476;BME280;53376;51.114;14.738;2022-09-09T01:44:10;98075.66;;;19.91;53.70
46476;BME280;53376;51.114;14.738;2022-09-09T01:46:45;98074.28;;;19.87;53.79
46476;BME280;53376;51.114;14.738;2022-09-09T01:49:26;98071.22;;;19.81;53.49
46476;BME280;53376;51.114;14.738;2022-09-09T01:51:55;98083.28;;;19.77;53.89
46476;BME280;53376;51.114;14.738;2022-09-09T02:05:20;98072.63;;;19.68;54.19
46476;BME280;53376;51.114;14.738;2022-09-09T02:08:17;98071.63;;;19.69;54.25
46476;BME280;53376;51.114;14.738;2022-09-09T02:11:06;98079.56;;;19.70;53.93
46476;BME280;53376;51.114;14.738;2022-09-09T02:14:08;98077.69;;;19.71;53.90
46476;BME280;53376;51.114;14.738;2022-09-09T02:16:54;98072.16;;;19.72;54.10
46476;BME280;53376;51.114;14.738;2022-09-09T02:30:35;98075.31;;;19.68;53.58
46476;BME280;53376;51.114;14.738;2022-09-09T02:33:19;98080.19;;;19.64;53.50
46476;BME280;53376;51.114;14.738;2022-09-09T02:35:51;98074.59;;;19.57;53.73
46476;BME280;53376;51.114;14.738;2022-09-09T02:42:13;98080.44;;;19.53;53.91
46476;BME280;53376;51.114;14.738;2022-09-09T02:44:56;98086.84;;;19.52;54.15
46476;BME280;53376;51.114;14.738;2022-09-09T02:57:43;98081.47;;;19.52;54.17
46476;BME280;53376;51.114;14.738;2022-09-09T03:00:35;98085.16;;;19.51;53.82
46476;BME280;53376;51.114;14.738;2022-09-09T03:03:17;98067.28;;;19.49;53.72
46476;BME280;53376;51.114;14.738;2022-09-09T03:05:48;98074.53;;;19.49;53.54
46476;BME280;53376;51.114;14.738;2022-09-09T03:08:28;98076.38;;;19.48;53.80
46476;BME280;53376;51.114;14.738;2022-09-09T03:10:59;98085.63;;;19.46;53.78
46476;BME280;53376;51.114;14.738;2022-09-09T03:23:56;98092.00;;;19.45;53.61
46476;BME280;53376;51.114;14.738;2022-09-09T03:26:37;98090.47;;;19.42;53.98
46476;BME280;53376;51.114;14.738;2022-09-09T03:29:08;98094.88;;;19.43;53.96
46476;BME280;53376;51.114;14.738;2022-09-09T03:31:51;98094.72;;;19.45;53.76
46476;BME280;53376;51.114;14.738;2022-09-09T03:34:25;98091.19;;;19.44;53.71
46476;BME280;53376;51.114;14.738;2022-09-09T03:37:06;98093.00;;;19.44;53.70
46476;BME280;53376;51.114;14.738;2022-09-09T03:39:36;98088.31;;;19.46;53.74
46476;BME280;53376;51.114;14.738;2022-09-09T03:49:42;98095.06;;;19.50;53.52
46476;BME280;53376;51.114;14.738;2022-09-09T03:52:22;98094.41;;;19.48;53.52
46476;BME280;53376;51.114;14.738;2022-09-09T03:55:06;98091.72;;;19.48;53.49
46476;BME280;53376;51.114;14.738;2022-09-09T03:57:40;98085.47;;;19.47;53.36
46476;BME280;53376;51.114;14.738;2022-09-09T04:00:21;98091.72;;;19.48;53.39
46476;BME280;53376;51.114;14.738;2022-09-09T04:02:51;98096.25;;;19.47;53.55
46476;BME280;53376;51.114;14.738;2022-09-09T04:05:31;98092.38;;;19.50;53.68
46476;BME280;53376;51.114;14.738;2022-09-09T04:18:15;98105.56;;;19.35;53.72
46476;BME280;53376;51.114;14.738;2022-09-09T04:20:56;98111.97;;;19.34;53.62
46476;BME280;53376;51.114;14.738;2022-09-09T04:23:39;98110.28;;;19.33;53.92
46476;BME280;53376;51.114;14.738;2022-09-09T04:26:06;98107.59;;;19.33;53.66
46476;BME280;53376;51.114;14.738;2022-09-09T04:28:47;98109.44;;;19.32;53.57
46476;BME280;53376;51.114;14.738;2022-09-09T04:44:59;98105.19;;;19.30;54.02
46476;BME280;53376;51.114;14.738;2022-09-09T04:47:40;98109.75;;;19.29;54.23
46476;BME280;53376;51.114;14.738;2022-09-09T04:50:09;98112.44;;;19.29;54.15
46476;BME280;53376;51.114;14.738;2022-09-09T04:52:55;98117.31;;;19.26;54.26
46476;BME280;53376;51.114;14.738;2022-09-09T04:55:30;98113.06;;;19.23;54.56
46476;BME280;53376;51.114;14.738;2022-09-09T04:58:10;98107.34;;;19.26;54.28
46476;BME280;53376;51.114;14.738;2022-09-09T05:00:40;98116.31;;;19.27;54.30
46476;BME280;53376;51.114;14.738;2022-09-09T05:10:26;98110.28;;;19.33;54.11
46476;BME280;53376;51.114;14.738;2022-09-09T05:13:07;98112.28;;;19.31;54.11
46476;BME280;53376;51.114;14.738;2022-09-09T05:15:54;98114.13;;;19.30;54.31
46476;BME280;53376;51.114;14.738;2022-09-09T05:18:28;98108.91;;;19.29;54.35
46476;BME280;53376;51.114;14.738;2022-09-09T05:21:09;98110.59;;;19.30;54.35
46476;BME280;53376;51.114;14.738;2022-09-09T05:23:38;98117.69;;;19.31;54.53
46476;BME280;53376;51.114;14.738;2022-09-09T05:36:51;98114.00;;;19.32;54.94
46476;BME280;53376;51.114;14.738;2022-09-09T05:39:32;98119.03;;;19.35;54.79
46476;BME280;53376;51.114;14.738;2022-09-09T05:42:00;98117.34;;;19.34;54.89
46476;BME280;53376;51.114;14.738;2022-09-09T05:44:39;98115.34;;;19.36;55.13
46476;BME280;53376;51.114;14.738;2022-09-09T05:47:07;98118.06;;;19.36;55.37
46476;BME280;53376;51.114;14.738;2022-09-09T05:49:47;98117.06;;;19.37;55.13
46476;BME280;53376;51.114;14.738;2022-09-09T06:06:00;98119.50;;;19.48;55.20
46476;BME280;53376;51.114;14.738;2022-09-09T06:08:44;98127.41;;;19.50;55.09
46476;BME280;53376;51.114;14.738;2022-09-09T06:11:15;98124.59;;;19.52;55.30
46476;BME280;53376;51.114;14.738;2022-09-09T06:13:58;98129.97;;;19.52;55.48
46476;BME280;53376;51.114;14.738;2022-09-09T06:16:28;98127.94;;;19.54;55.18
46476;BME280;53376;51.114;14.738;2022-09-09T06:19:22;98133.16;;;19.55;55.27
46476;BME280;53376;51.114;14.738;2022-09-09T06:32:14;98134.78;;;19.66;55.50
46476;BME280;53376;51.114;14.738;2022-09-09T06:34:55;98142.69;;;19.68;55.37
46476;BME280;53376;51.114;14.738;2022-09-09T06:37:35;98135.84;;;19.73;55.21
46476;BME280;53376;51.114;14.738;2022-09-09T06:40:02;98147.00;;;19.78;55.23
46476;BME280;53376;51.114;14.738;2022-09-09T06:42:43;98155.47;;;19.84;55.53
46476;BME280;53376;51.114;14.738;2022-09-09T06:45:33;98154.19;;;19.88;55.27
46476;BME280;53376;51.114;14.738;2022-09-09T06:58:49;98147.50;;;20.00;55.63
46476;BME280;53376;51.114;14.738;2022-09-09T07:01:32;98144.66;;;20.02;55.46
46476;BME280;53376;51.114;14.738;2022-09-09T07:04:11;98150.56;;;20.05;55.58
46476;BME280;53376;51.114;14.738;2022-09-09T07:06:50;98144.19;;;20.06;55.43
46476;BME280;53376;51.114;14.738;2022-09-09T07:09:21;98144.00;;;20.08;55.49
46476;BME280;53376;51.114;14.738;2022-09-09T07:25:59;98139.16;;;20.11;55.83
46476;BME280;53376;51.114;14.738;2022-09-09T07:28:40;98141.00;;;20.11;55.92
46476;BME280;53376;51.114;14.738;2022-09-09T07:31:24;98141.31;;;20.08;55.97
46476;BME280;53376;51.114;14.738;2022-09-09T07:34:00;98149.25;;;20.09;56.21
46476;BME280;53376;51.114;14.738;2022-09-09T07:36:42;98136.75;;;20.08;56.64
46476;BME280;53376;51.114;14.738;2022-09-09T07:39:13;98138.44;;;20.09;56.47
46476;BME280;53376;51.114;14.738;2022-09-09T07:52:26;98151.28;;;20.07;56.84
46476;BME280;53376;51.114;14.738;2022-09-09T07:55:07;98156.66;;;20.07;56.88
46476;BME280;53376;51.114;14.738;2022-09-09T07:57:35;98160.03;;;20.09;56.78
46476;BME280;53376;51.114;14.738;2022-09-09T08:00:16;98161.03;;;20.08;57.01
46476;BME280;53376;51.114;14.738;2022-09-09T08:02:50;98161.41;;;20.13;57.02
46476;BME280;53376;51.114;14.738;2022-09-09T08:05:34;98159.38;;;20.16;57.22
46476;BME280;53376;51.114;14.738;2022-09-09T08:18:18;98156.56;;;20.25;57.24
46476;BME280;53376;51.114;14.738;2022-09-09T08:21:06;98163.50;;;20.28;57.60
46476;BME280;53376;51.114;14.738;2022-09-09T08:23:51;98161.50;;;20.30;57.35
46476;BME280;53376;51.114;14.738;2022-09-09T08:26:33;98164.88;;;20.32;57.18
46476;BME280;53376;51.114;14.738;2022-09-09T08:29:15;98160.31;;;20.33;57.46
46476;BME280;53376;51.114;14.738;2022-09-09T08:45:31;98168.13;;;20.44;56.14
46476;BME280;53376;51.114;14.738;2022-09-09T08:48:31;98166.66;;;20.50;56.14
46476;BME280;53376;51.114;14.738;2022-09-09T08:51:16;98173.41;;;20.54;56.59
46476;BME280;53376;51.114;14.738;2022-09-09T08:53:59;98176.47;;;20.59;56.64
46476;BME280;53376;51.114;14.738;2022-09-09T08:56:36;98176.81;;;20.64;56.24
46476;BME280;53376;51.114;14.738;2022-09-09T08:59:18;98173.78;;;20.67;56.37
46476;BME280;53376;51.114;14.738;2022-09-09T09:12:16;98170.38;;;20.91;56.40
46476;BME280;53376;51.114;14.738;2022-09-09T09:14:59;98172.03;;;20.92;56.20
46476;BME280;53376;51.114;14.738;2022-09-09T09:17:40;98178.97;;;20.95;56.05
46476;BME280;53376;51.114;14.738;2022-09-09T09:20:12;98176.25;;;20.95;55.83
46476;BME280;53376;51.114;14.738;2022-09-09T09:22:57;98174.75;;;20.92;55.41
46476;BME280;53376;51.114;14.738;2022-09-09T09:25:39;98168.50;;;20.92;55.45
46476;BME280;53376;51.114;14.738;2022-09-09T09:38:22;98160.94;;;21.12;55.37
46476;BME280;53376;51.114;14.738;2022-09-09T09:41:34;98163.31;;;21.23;54.31
46476;BME280;53376;51.114;14.738;2022-09-09T09:44:24;98158.28;;;21.29;53.27
46476;BME280;53376;51.114;14.738;2022-09-09T09:47:14;98157.25;;;21.30;52.78
46476;BME280;53376;51.114;14.738;2022-09-09T09:49:59;98160.13;;;21.36;52.42
46476;BME280;53376;51.114;14.738;2022-09-09T10:06:37;98140.53;;;22.00;51.52
46476;BME280;53376;51.114;14.738;2022-09-09T10:09:26;98138.97;;;22.14;51.50
46476;BME280;53376;51.114;14.738;2022-09-09T10:12:18;98148.53;;;22.33;51.07
46476;BME280;53376;51.114;14.738;2022-09-09T10:15:09;98132.28;;;22.50;50.78
46476;BME280;53376;51.114;14.738;2022-09-09T10:18:13;98136.59;;;22.67;50.51
46476;BME280;53376;51.114;14.738;2022-09-09T10:21:06;98137.88;;;22.80;50.60
46476;BME280;53376;51.114;14.738;2022-09-09T10:31:07;98130.81;;;23.02;48.99
46476;BME280;53376;51.114;14.738;2022-09-09T10:34:06;98138.06;;;23.01;49.33
46476;BME280;53376;51.114;14.738;2022-09-09T10:36:54;98133.66;;;23.00;48.70
46476;BME280;53376;51.114;14.738;2022-09-09T10:39:34;98137.53;;;23.06;48.53
46476;BME280;53376;51.114;14.738;2022-09-09T10:42:24;98134.25;;;23.19;49.78
46476;BME280;53376;51.114;14.738;2022-09-09T10:45:16;98143.97;;;23.37;49.43
46476;BME280;53376;51.114;14.738;2022-09-09T10:58:38;98140.59;;;23.73;48.85
46476;BME280;53376;51.114;14.738;2022-09-09T11:01:25;98141.25;;;23.75;48.86
46476;BME280;53376;51.114;14.738;2022-09-09T11:04:10;98137.91;;;23.73;47.65
46476;BME280;53376;51.114;14.738;2022-09-09T11:06:55;98133.78;;;23.77;47.39
46476;BME280;53376;51.114;14.738;2022-09-09T11:09:27;98127.41;;;23.85;46.73
46476;BME280;53376;51.114;14.738;2022-09-09T11:26:14;98137.13;;;24.32;46.36
46476;BME280;53376;51.114;14.738;2022-09-09T11:29:25;98138.91;;;24.40;47.15
46476;BME280;53376;51.114;14.738;2022-09-09T11:32:32;98131.31;;;24.50;47.85
46476;BME280;53376;51.114;14.738;2022-09-09T11:35:29;98137.47;;;24.59;47.51
46476;BME280;53376;51.114;14.738;2022-09-09T11:38:23;98129.25;;;24.67;47.07
46476;BME280;53376;51.114;14.738;2022-09-09T11:41:03;98133.56;;;24.76;47.11
46476;BME280;53376;51.114;14.738;2022-09-09T11:51:27;98116.63;;;24.96;46.40
46476;BME280;53376;51.114;14.738;2022-09-09T11:54:29;98118.38;;;25.04;46.15
46476;BME280;53376;51.114;14.738;2022-09-09T11:57:24;98111.16;;;25.11;44.72
46476;BME280;53376;51.114;14.738;2022-09-09T11:59:59;98114.13;;;25.16;43.99
46476;BME280;53376;51.114;14.738;2022-09-09T12:02:48;98117.75;;;25.23;43.98
46476;BME280;53376;51.114;14.738;2022-09-09T12:05:23;98120.31;;;25.32;44.73
46476;BME280;53376;51.114;14.738;2022-09-09T12:18:36;98121.50;;;25.66;45.01
46476;BME280;53376;51.114;14.738;2022-09-09T12:21:29;98114.25;;;25.73;44.62
46476;BME280;53376;51.114;14.738;2022-09-09T12:24:10;98108.19;;;25.78;44.41
46476;BME280;53376;51.114;14.738;2022-09-09T12:26:58;98112.38;;;25.80;44.63
46476;BME280;53376;51.114;14.738;2022-09-09T12:29:49;98113.69;;;25.84;44.95
46476;BME280;53376;51.114;14.738;2022-09-09T12:32:34;98112.81;;;25.84;44.28
46476;BME280;53376;51.114;14.738;2022-09-09T12:35:10;98111.19;;;25.83;43.80
46476;BME280;53376;51.114;14.738;2022-09-09T12:44:58;98095.91;;;26.17;43.66
46476;BME280;53376;51.114;14.738;2022-09-09T12:47:45;98090.09;;;26.27;43.35
46476;BME280;53376;51.114;14.738;2022-09-09T12:50:32;98085.53;;;26.34;43.00
46476;BME280;53376;51.114;14.738;2022-09-09T12:53:11;98082.66;;;26.42;43.38
46476;BME280;53376;51.114;14.738;2022-09-09T12:56:01;98081.41;;;26.51;43.18
46476;BME280;53376;51.114;14.738;2022-09-09T12:58:38;98072.22;;;26.59;42.43
46476;BME280;53376;51.114;14.738;2022-09-09T13:11:57;98053.47;;;27.05;41.48
46476;BME280;53376;51.114;14.738;2022-09-09T13:14:38;98045.50;;;27.10;41.01
46476;BME280;53376;51.114;14.738;2022-09-09T13:17:15;98048.47;;;27.22;42.14
46476;BME280;53376;51.114;14.738;2022-09-09T13:19:57;98051.22;;;27.35;41.29
46476;BME280;53376;51.114;14.738;2022-09-09T13:22:30;98039.69;;;27.46;41.21
46476;BME280;53376;51.114;14.738;2022-09-09T13:25:20;98056.25;;;27.58;40.86
46476;BME280;53376;51.114;14.738;2022-09-09T13:38:23;98050.19;;;27.43;40.48
46476;BME280;53376;51.114;14.738;2022-09-09T13:41:05;98039.22;;;27.36;40.60
46476;BME280;53376;51.114;14.738;2022-09-09T13:43:50;98032.31;;;27.27;40.97
46476;BME280;53376;51.114;14.738;2022-09-09T13:46:32;98037.34;;;27.16;41.63
46476;BME280;53376;51.114;14.738;2022-09-09T13:49:22;98043.00;;;27.08;42.03
46476;BME280;53376;51.114;14.738;2022-09-09T13:52:05;98049.50;;;27.00;41.22
46476;BME280;53376;51.114;14.738;2022-09-09T13:54:52;98054.31;;;26.92;41.87
46476;BME280;53376;51.114;14.738;2022-09-09T14:07:41;98115.13;;;26.50;41.67
46476;BME280;53376;51.114;14.738;2022-09-09T14:10:11;98115.34;;;26.42;41.73
46476;BME280;53376;51.114;14.738;2022-09-09T14:12:51;98098.06;;;26.28;41.49
46476;BME280;53376;51.114;14.738;2022-09-09T14:15:19;98082.09;;;26.18;42.27
46476;BME280;53376;51.114;14.738;2022-09-09T14:17:58;98082.06;;;26.12;42.19
46476;BME280;53376;51.114;14.738;2022-09-09T14:20:26;98081.63;;;26.08;42.62
46476;BME280;53376;51.114;14.738;2022-09-09T14:33:38;98071.59;;;26.64;40.66
46476;BME280;53376;51.114;14.738;2022-09-09T14:36:19;98060.53;;;26.72;39.77
46476;BME280;53376;51.114;14.738;2022-09-09T14:38:46;98058.47;;;26.81;38.56
46476;BME280;53376;51.114;14.738;2022-09-09T14:41:27;98052.00;;;26.95;38.70
46476;BME280;53376;51.114;14.738;2022-09-09T14:43:55;98048.44;;;27.01;38.06
46476;BME280;53376;51.114;14.738;2022-09-09T15:00:32;98020.78;;;27.38;37.21
46476;BME280;53376;51.114;14.738;2022-09-09T15:03:12;98015.31;;;27.38;37.08
46476;BME280;53376;51.114;14.738;2022-09-09T15:05:57;98009.44;;;27.34;36.73
46476;BME280;53376;51.114;14.738;2022-09-09T15:08:24;98033.56;;;27.17;36.99
46476;BME280;53376;51.114;14.738;2022-09-09T15:11:17;98041.31;;;26.94;37.51
46476;BME280;53376;51.114;14.738;2022-09-09T15:13:54;98052.16;;;26.80;38.44
46476;BME280;53376;51.114;14.738;2022-09-09T15:27:09;98053.13;;;26.52;40.94
46476;BME280;53376;51.114;14.738;2022-09-09T15:29:50;98042.63;;;26.49;40.95
46476;BME280;53376;51.114;14.738;2022-09-09T15:32:17;98038.63;;;26.45;40.88
46476;BME280;53376;51.114;14.738;2022-09-09T15:34:57;98026.47;;;26.41;41.27
46476;BME280;53376;51.114;14.738;2022-09-09T15:37:25;98021.00;;;26.34;40.89
46476;BME280;53376;51.114;14.738;2022-09-09T15:40:06;98022.66;;;26.29;40.93
46476;BME280;53376;51.114;14.738;2022-09-09T15:52:50;98090.44;;;26.10;40.67
46476;BME280;53376;51.114;14.738;2022-09-09T15:55:30;98098.78;;;26.09;41.00
46476;BME280;53376;51.114;14.738;2022-09-09T15:58:10;98099.56;;;26.02;41.49
46476;BME280;53376;51.114;14.738;2022-09-09T16:00:37;98097.44;;;25.98;41.19
46476;BME280;53376;51.114;14.738;2022-09-09T16:03:18;98102.84;;;25.91;41.78
46476;BME280;53376;51.114;14.738;2022-09-09T16:05:50;98099.63;;;25.81;42.13
46476;BME280;53376;51.114;14.738;2022-09-09T16:19:07;98104.28;;;25.15;42.99
46476;BME280;53376;51.114;14.738;2022-09-09T16:21:49;98097.03;;;25.01;43.49
46476;BME280;53376;51.114;14.738;2022-09-09T16:24:18;98102.31;;;24.87;43.86
46476;BME280;53376;51.114;14.738;2022-09-09T16:26:58;98120.16;;;24.75;44.19
46476;BME280;53376;51.114;14.738;2022-09-09T16:29:26;98125.72;;;24.67;44.45
46476;BME280;53376;51.114;14.738;2022-09-09T16:32:05;98126.59;;;24.59;44.38
46476;BME280;53376;51.114;14.738;2022-09-09T16:34:35;98128.97;;;24.47;44.25
46476;BME280;53376;51.114;14.738;2022-09-09T16:47:44;98125.91;;;24.20;45.02
46476;BME280;53376;51.114;14.738;2022-09-09T16:50:26;98126.91;;;24.19;45.66
46476;BME280;53376;51.114;14.738;2022-09-09T16:52:54;98134.44;;;24.17;45.82
46476;BME280;53376;51.114;14.738;2022-09-09T16:55:37;98148.00;;;24.17;46.05
46476;BME280;53376;51.114;14.738;2022-09-09T16:58:11;98164.09;;;24.19;46.23
46476;BME280;53376;51.114;14.738;2022-09-09T17:00:57;98155.75;;;24.20;46.12
46476;BME280;53376;51.114;14.738;2022-09-09T17:13:49;98142.66;;;24.09;46.41
46476;BME280;53376;51.114;14.738;2022-09-09T17:16:31;98142.19;;;24.05;46.15
46476;BME280;53376;51.114;14.738;2022-09-09T17:19:14;98139.00;;;24.02;46.11
46476;BME280;53376;51.114;14.738;2022-09-09T17:21:42;98145.81;;;23.97;46.37
46476;BME280;53376;51.114;14.738;2022-09-09T17:24:42;98142.44;;;23.95;46.17
46476;BME280;53376;51.114;14.738;2022-09-09T17:41:00;98124.16;;;23.74;44.84
46476;BME280;53376;51.114;14.738;2022-09-09T17:43:42;98126.09;;;23.65;44.85
46476;BME280;53376;51.114;14.738;2022-09-09T17:46:11;98126.34;;;23.56;44.20
46476;BME280;53376;51.114;14.738;2022-09-09T17:48:56;98126.25;;;23.49;43.98
46476;BME280;53376;51.114;14.738;2022-09-09T17:51:34;98138.31;;;23.46;44.55
46476;BME280;53376;51.114;14.738;2022-09-09T17:54:17;98148.28;;;23.46;44.62
46476;BME280;53376;51.114;14.738;2022-09-09T18:07:09;98156.97;;;23.41;45.02
46476;BME280;53376;51.114;14.738;2022-09-09T18:09:49;98159.84;;;23.40;45.15
46476;BME280;53376;51.114;14.738;2022-09-09T18:12:29;98149.41;;;23.37;45.27
46476;BME280;53376;51.114;14.738;2022-09-09T18:14:57;98149.75;;;23.33;45.35
46476;BME280;53376;51.114;14.738;2022-09-09T18:17:38;98150.94;;;23.31;45.07
46476;BME280;53376;51.114;14.738;2022-09-09T18:20:06;98153.84;;;23.29;45.47
46476;BME280;53376;51.114;14.738;2022-09-09T18:33:18;98149.88;;;23.17;45.45
46476;BME280;53376;51.114;14.738;2022-09-09T18:36:04;98142.75;;;23.16;45.93
46476;BME280;53376;51.114;14.738;2022-09-09T18:38:40;98141.91;;;23.15;45.67
46476;BME280;53376;51.114;14.738;2022-09-09T18:41:22;98141.03;;;23.15;45.55
46476;BME280;53376;51.114;14.738;2022-09-09T18:43:59;98143.06;;;23.13;45.68
46476;BME280;53376;51.114;14.738;2022-09-09T19:00:36;98168.03;;;23.08;46.94
46476;BME280;53376;51.114;14.738;2022-09-09T19:03:16;98164.63;;;23.06;47.71
46476;BME280;53376;51.114;14.738;2022-09-09T19:06:00;98155.84;;;23.04;48.38
46476;BME280;53376;51.114;14.738;2022-09-09T19:08:35;98148.91;;;23.01;48.63
46476;BME280;53376;51.114;14.738;2022-09-09T19:11:18;98164.34;;;23.01;48.21
46476;BME280;53376;51.114;14.738;2022-09-09T19:13:56;98161.13;;;22.97;48.90
46476;BME280;53376;51.114;14.738;2022-09-09T19:27:08;98186.25;;;22.83;50.41
46476;BME280;53376;51.114;14.738;2022-09-09T19:29:48;98182.22;;;22.79;50.34
46476;BME280;53376;51.114;14.738;2022-09-09T19:32:26;98192.22;;;22.78;50.07
46476;BME280;53376;51.114;14.738;2022-09-09T19:35:26;98201.72;;;22.74;50.33
46476;BME280;53376;51.114;14.738;2022-09-09T19:37:54;98198.16;;;22.74;50.26
46476;BME280;53376;51.114;14.738;2022-09-09T19:40:36;98203.09;;;22.70;50.58
46476;BME280;53376;51.114;14.738;2022-09-09T19:53:20;98191.09;;;22.64;50.50
46476;BME280;53376;51.114;14.738;2022-09-09T19:56:01;98183.31;;;22.61;50.52
46476;BME280;53376;51.114;14.738;2022-09-09T19:58:42;98184.34;;;22.60;50.53
46476;BME280;53376;51.114;14.738;2022-09-09T20:01:20;98181.97;;;22.57;50.29
46476;BME280;53376;51.114;14.738;2022-09-09T20:04:04;98181.31;;;22.55;50.01
46476;BME280;53376;51.114;14.738;2022-09-09T20:06:41;98177.75;;;22.54;49.80
46476;BME280;53376;51.114;14.738;2022-09-09T20:22:17;98183.38;;;22.36;51.13
46476;BME280;53376;51.114;14.738;2022-09-09T20:24:50;98185.41;;;22.34;51.04
46476;BME280;53376;51.114;14.738;2022-09-09T20:27:35;98193.88;;;22.31;51.05
46476;BME280;53376;51.114;14.738;2022-09-09T20:30:03;98190.50;;;22.29;51.43
46476;BME280;53376;51.114;14.738;2022-09-09T20:32:44;98194.91;;;22.22;51.41
46476;BME280;53376;51.114;14.738;2022-09-09T20:35:12;98186.63;;;22.23;51.66
46476;BME280;53376;51.114;14.738;2022-09-09T20:48:24;98180.50;;;22.30;51.08
46476;BME280;53376;51.114;14.738;2022-09-09T20:51:05;98172.94;;;22.25;51.35
46476;BME280;53376;51.114;14.738;2022-09-09T20:53:32;98172.25;;;22.23;51.18
46476;BME280;53376;51.114;14.738;2022-09-09T20:56:13;98171.56;;;22.21;51.28
46476;BME280;53376;51.114;14.738;2022-09-09T20:58:40;98172.59;;;22.20;51.43
46476;BME280;53376;51.114;14.738;2022-09-09T21:01:20;98169.03;;;22.19;51.95
46476;BME280;53376;51.114;14.738;2022-09-09T21:14:05;98168.03;;;22.12;51.78
46476;BME280;53376;51.114;14.738;2022-09-09T21:16:45;98165.53;;;22.11;51.60
46476;BME280;53376;51.114;14.738;2022-09-09T21:19:25;98180.06;;;22.10;51.54
46476;BME280;53376;51.114;14.738;2022-09-09T21:21:53;98178.38;;;22.09;51.88
46476;BME280;53376;51.114;14.738;2022-09-09T21:24:33;98173.47;;;22.04;51.28
46476;BME280;53376;51.114;14.738;2022-09-09T21:40:43;98161.81;;;21.95;51.55
46476;BME280;53376;51.114;14.738;2022-09-09T21:43:23;98165.56;;;21.94;51.49
46476;BME280;53376;51.114;14.738;2022-09-09T21:45:52;98155.06;;;21.91;51.68
46476;BME280;53376;51.114;14.738;2022-09-09T21:48:33;98166.91;;;21.90;51.54
46476;BME280;53376;51.114;14.738;2022-09-09T21:51:03;98159.78;;;21.89;51.36
46476;BME280;53376;51.114;14.738;2022-09-09T21:53:45;98148.16;;;21.88;51.53
46476;BME280;53376;51.114;14.738;2022-09-09T21:56:16;98150.03;;;21.88;51.47
46476;BME280;53376;51.114;14.738;2022-09-09T22:09:22;98157.78;;;21.83;51.07
46476;BME280;53376;51.114;14.738;2022-09-09T22:12:05;98159.66;;;21.82;50.98
46476;BME280;53376;51.114;14.738;2022-09-09T22:14:32;98154.41;;;21.81;50.94
46476;BME280;53376;51.114;14.738;2022-09-09T22:17:12;98154.75;;;21.78;51.26
46476;BME280;53376;51.114;14.738;2022-09-09T22:19:40;98143.09;;;21.77;50.96
46476;BME280;53376;51.114;14.738;2022-09-09T22:36:08;98141.06;;;21.63;51.01
46476;BME280;53376;51.114;14.738;2022-09-09T22:38:35;98142.25;;;21.60;51.53
46476;BME280;53376;51.114;14.738;2022-09-09T22:41:15;98131.81;;;21.57;51.71
46476;BME280;53376;51.114;14.738;2022-09-09T22:43:44;98136.50;;;21.55;51.33
46476;BME280;53376;51.114;14.738;2022-09-09T22:46:24;98128.56;;;21.53;51.28
46476;BME280;53376;51.114;14.738;2022-09-09T23:02:33;98125.34;;;21.41;51.98
46476;BME280;53376;51.114;14.738;2022-09-09T23:05:13;98109.94;;;21.42;52.13
46476;BME280;53376;51.114;14.738;2022-09-09T23:07:41;98124.31;;;21.42;51.89
46476;BME280;53376;51.114;14.738;2022-09-09T23:10:21;98111.00;;;21.41;51.83
46476;BME280;53376;51.114;14.738;2022-09-09T23:12:49;98108.44;;;21.39;52.13
46476;BME280;53376;51.114;14.738;2022-09-09T23:15:37;98110.47;;;21.37;52.31
46476;BME280;53376;51.114;14.738;2022-09-09T23:28:29;98108.44;;;21.23;53.12
46476;BME280;53376;51.114;14.738;2022-09-09T23:31:13;98115.03;;;21.20;53.18
46476;BME280;53376;51.114;14.738;2022-09-09T23:33:54;98117.91;;;21.19;53.26
46476;BME280;53376;51.114;14.738;2022-09-09T23:36:23;98105.41;;;21.18;53.21
46476;BME280;53376;51.114;14.738;2022-09-09T23:39:06;98109.13;;;21.17;53.47
46476;BME280;53376;51.114;14.738;2022-09-09T23:41:35;98109.47;;;21.14;53.68
46476;BME280;53376;51.114;14.738;2022-09-09T23:54:54;98118.75;;;21.03;54.02
46476;BME280;53376;51.114;14.738;2022-09-09T23:57:37;98111.63;;;21.02;54.05
